createdAt,value
2023-01-19T00:00:50.336Z,64.03
2023-01-19T00:03:16.714Z,63.93
2023-01-19T00:05:43.067Z,63.44
2023-01-19T00:08:09.451Z,64.14
2023-01-19T00:10:35.810Z,65.34
2023-01-19T00:13:02.575Z,63.88
2023-01-19T00:15:29.190Z,63.96
2023-01-19T00:17:55.591Z,64.33
2023-01-19T00:20:21.982Z,64.79
2023-01-19T00:22:48.345Z,65.00
2023-01-19T00:25:14.719Z,65.08
2023-01-19T00:27:41.088Z,64.13
2023-01-19T00:30:07.469Z,63.20
2023-01-19T00:32:33.861Z,63.86
2023-01-19T00:35:00.227Z,65.33
2023-01-19T00:37:26.604Z,64.52
2023-01-19T00:39:53.236Z,65.29
2023-01-19T00:42:19.634Z,63.97
2023-01-19T00:44:46.014Z,65.34
2023-01-19T00:47:12.380Z,64.84
2023-01-19T00:49:38.823Z,64.69
2023-01-19T00:52:05.203Z,64.83
2023-01-19T00:54:31.586Z,64.21
2023-01-19T00:56:57.970Z,64.88
2023-01-19T00:59:24.355Z,63.87
2023-01-19T01:01:50.867Z,64.67
2023-01-19T01:04:17.313Z,64.43
2023-01-19T01:06:43.752Z,64.65
2023-01-19T01:09:10.109Z,64.59
2023-01-19T01:11:36.494Z,64.64
2023-01-19T01:14:02.879Z,64.66
2023-01-19T01:16:29.909Z,64.25
2023-01-19T01:18:56.288Z,63.18
2023-01-19T01:21:22.667Z,63.89
2023-01-19T01:23:49.050Z,63.63
2023-01-19T01:26:15.422Z,63.91
2023-01-19T01:28:41.796Z,64.71
2023-01-19T01:31:08.196Z,64.06
2023-01-19T01:33:41.031Z,63.86
2023-01-19T01:36:08.198Z,64.36
2023-01-19T01:38:34.582Z,64.33
2023-01-19T01:41:00.992Z,64.48
2023-01-19T01:43:27.389Z,64.64
2023-01-19T01:45:53.815Z,64.92
2023-01-19T01:48:20.242Z,64.99
2023-01-19T01:50:46.635Z,65.42
2023-01-19T01:53:13.037Z,64.81
2023-01-19T01:55:39.428Z,65.38
2023-01-19T01:58:05.828Z,65.10
2023-01-19T02:00:32.202Z,64.80
2023-01-19T02:02:58.975Z,64.40
2023-01-19T02:05:25.626Z,64.83
2023-01-19T02:07:52.064Z,64.85
2023-01-19T02:10:18.445Z,64.47
2023-01-19T02:12:44.812Z,64.33
2023-01-19T02:15:11.188Z,65.27
2023-01-19T02:17:37.575Z,65.17
2023-01-19T02:20:03.944Z,65.47
2023-01-19T02:22:30.333Z,63.68
2023-01-19T02:24:56.703Z,63.26
2023-01-19T02:27:23.078Z,62.72
2023-01-19T02:29:49.465Z,62.73
2023-01-19T02:32:15.830Z,63.52
2023-01-19T02:34:42.201Z,63.75
2023-01-19T02:37:08.632Z,63.51
2023-01-19T02:39:35.033Z,64.34
2023-01-19T02:42:01.510Z,64.07
2023-01-19T02:44:27.901Z,63.13
2023-01-19T02:46:54.360Z,63.84
2023-01-19T02:49:20.735Z,64.82
2023-01-19T02:51:47.105Z,65.64
2023-01-19T02:54:13.472Z,65.61
2023-01-19T02:56:39.864Z,65.16
2023-01-19T02:59:06.243Z,64.93
2023-01-19T03:01:32.788Z,64.66
2023-01-19T03:03:59.269Z,64.63
2023-01-19T03:06:25.648Z,64.77
2023-01-19T03:08:52.053Z,65.60
2023-01-19T03:11:18.435Z,66.59
2023-01-19T03:13:44.821Z,66.91
2023-01-19T03:16:11.298Z,66.36
2023-01-19T03:18:37.757Z,66.11
2023-01-19T03:21:04.154Z,66.88
2023-01-19T03:23:30.514Z,65.87
2023-01-19T03:25:56.890Z,65.71
2023-01-19T03:28:23.327Z,66.60
2023-01-19T03:30:49.747Z,66.24
2023-01-19T03:33:16.133Z,66.17
2023-01-19T03:35:42.504Z,65.97
2023-01-19T03:38:08.875Z,65.98
2023-01-19T03:40:35.296Z,66.39
2023-01-19T03:43:02.195Z,66.27
2023-01-19T03:45:28.820Z,65.45
2023-01-19T03:47:55.214Z,66.12
2023-01-19T03:50:21.577Z,67.14
2023-01-19T03:52:47.952Z,66.73
2023-01-19T03:55:14.314Z,66.16
2023-01-19T03:57:40.665Z,64.85
2023-01-19T04:00:07.097Z,65.78
2023-01-19T04:02:33.524Z,65.59
2023-01-19T04:04:59.936Z,65.40
2023-01-19T04:07:26.492Z,63.23
2023-01-19T04:09:52.911Z,64.03
2023-01-19T04:12:19.292Z,63.78
2023-01-19T04:14:45.663Z,63.88
2023-01-19T04:17:12.052Z,63.19
2023-01-19T04:19:38.432Z,63.63
2023-01-19T04:22:04.865Z,63.49
2023-01-19T04:24:31.291Z,62.77
2023-01-19T04:26:57.648Z,61.95
2023-01-19T04:29:24.013Z,62.78
2023-01-19T04:31:50.448Z,62.35
2023-01-19T04:34:16.832Z,63.16
2023-01-19T04:36:43.204Z,62.08
2023-01-19T04:39:09.573Z,62.38
2023-01-19T04:41:35.991Z,62.32
2023-01-19T04:44:02.477Z,62.08
2023-01-19T04:46:28.883Z,61.06
2023-01-19T04:48:55.300Z,61.60
2023-01-19T04:51:21.747Z,61.24
2023-01-19T04:53:48.129Z,62.37
2023-01-19T04:56:14.505Z,61.69
2023-01-19T04:58:40.896Z,61.41
2023-01-19T05:01:07.358Z,61.79
2023-01-19T05:03:33.806Z,62.06
2023-01-19T05:06:00.227Z,63.35
2023-01-19T05:08:26.593Z,62.82
2023-01-19T05:10:53.012Z,63.95
2023-01-19T05:13:19.406Z,64.69
2023-01-19T05:15:45.830Z,64.75
2023-01-19T05:18:12.315Z,65.25
2023-01-19T05:20:38.680Z,65.24
2023-01-19T05:23:05.079Z,65.47
2023-01-19T05:25:31.455Z,64.83
2023-01-19T05:27:57.832Z,64.72
2023-01-19T05:30:24.197Z,63.92
2023-01-19T05:32:50.559Z,63.69
2023-01-19T05:35:20.117Z,63.44
2023-01-19T05:37:51.414Z,64.30
2023-01-19T05:40:17.791Z,64.07
2023-01-19T05:42:44.183Z,64.01
2023-01-19T05:45:10.550Z,64.06
2023-01-19T05:47:36.945Z,64.61
2023-01-19T05:50:03.320Z,64.54
2023-01-19T05:52:29.700Z,64.51
2023-01-19T05:54:56.125Z,65.12
2023-01-19T05:57:22.486Z,65.04
2023-01-19T05:59:48.881Z,65.62
2023-01-19T06:02:15.332Z,65.21
2023-01-19T06:04:41.736Z,65.01
2023-01-19T06:07:08.128Z,65.48
2023-01-19T06:09:34.563Z,65.31
2023-01-19T06:12:00.943Z,65.32
2023-01-19T06:14:27.334Z,65.62
2023-01-19T06:16:53.699Z,65.72
2023-01-19T06:19:20.072Z,65.49
2023-01-19T06:21:46.492Z,65.15
2023-01-19T06:24:14.448Z,64.92
2023-01-19T06:26:40.950Z,65.20
2023-01-19T06:29:07.341Z,65.51
2023-01-19T06:31:33.729Z,65.34
2023-01-19T06:34:00.147Z,65.89
2023-01-19T06:36:26.505Z,64.92
2023-01-19T06:38:52.869Z,64.90
2023-01-19T06:41:19.228Z,63.61
2023-01-19T06:43:45.644Z,64.14
2023-01-19T06:46:12.109Z,65.10
2023-01-19T06:48:38.508Z,65.99
2023-01-19T06:51:04.900Z,65.94
2023-01-19T06:53:31.308Z,66.08
2023-01-19T06:55:57.808Z,65.48
2023-01-19T06:58:24.684Z,66.28
2023-01-19T07:00:51.200Z,66.20
2023-01-19T07:03:18.139Z,65.03
2023-01-19T07:05:44.568Z,64.98
2023-01-19T07:08:10.957Z,66.15
2023-01-19T07:11:27.147Z,66.94
2023-01-19T07:13:23.653Z,65.58
2023-01-19T07:15:50.104Z,65.31
2023-01-19T07:18:16.481Z,65.20
2023-01-19T07:20:42.856Z,65.12
2023-01-19T07:23:09.216Z,64.93
2023-01-19T07:25:35.588Z,64.36
2023-01-19T07:28:01.960Z,65.21
2023-01-19T07:30:28.482Z,65.44
2023-01-19T07:32:54.907Z,66.51
2023-01-19T07:35:21.268Z,66.57
2023-01-19T07:37:47.690Z,66.89
2023-01-19T07:40:14.045Z,66.61
2023-01-19T07:42:40.423Z,66.44
2023-01-19T07:45:06.784Z,66.10
2023-01-19T07:47:33.217Z,66.39
2023-01-19T07:49:59.572Z,66.69
2023-01-19T07:52:25.944Z,66.14
2023-01-19T07:54:52.396Z,66.38
2023-01-19T07:57:18.753Z,66.96
2023-01-19T07:59:45.140Z,66.08
2023-01-19T08:02:11.590Z,65.99
2023-01-19T08:04:38.064Z,66.73
2023-01-19T08:07:04.503Z,65.98
2023-01-19T08:09:30.879Z,65.81
2023-01-19T08:11:57.324Z,64.77
2023-01-19T08:14:23.688Z,63.77
2023-01-19T08:16:50.057Z,63.88
2023-01-19T08:19:16.472Z,64.55
2023-01-19T08:21:42.828Z,64.49
2023-01-19T08:24:09.237Z,64.94
2023-01-19T08:26:35.786Z,65.29
2023-01-19T08:29:02.183Z,65.50
2023-01-19T08:31:28.649Z,64.09
2023-01-19T08:33:55.081Z,64.46
2023-01-19T08:36:21.514Z,64.74
2023-01-19T08:38:47.936Z,64.32
2023-01-19T08:41:14.387Z,63.93
2023-01-19T08:43:40.759Z,64.55
2023-01-19T08:46:07.160Z,63.92
2023-01-19T08:48:33.601Z,64.05
2023-01-19T08:50:59.966Z,64.55
2023-01-19T08:53:26.318Z,64.10
2023-01-19T08:55:52.691Z,63.74
2023-01-19T08:58:19.084Z,63.34
2023-01-19T09:00:45.532Z,63.28
2023-01-19T09:03:12.017Z,61.79
2023-01-19T09:05:38.422Z,60.79
2023-01-19T09:08:04.782Z,59.95
2023-01-19T09:10:31.148Z,60.94
2023-01-19T09:12:57.754Z,61.22
2023-01-19T09:15:24.239Z,60.19
2023-01-19T09:17:50.624Z,59.65
2023-01-19T09:20:17.004Z,59.35
2023-01-19T09:22:43.460Z,59.13
2023-01-19T09:25:10.008Z,59.32
2023-01-19T09:27:36.426Z,58.22
2023-01-19T09:30:02.805Z,58.33
2023-01-19T09:32:29.214Z,57.02
2023-01-19T09:34:55.592Z,56.60
2023-01-19T09:37:21.950Z,57.21
2023-01-19T09:39:48.407Z,57.12
2023-01-19T09:42:14.792Z,57.18
2023-01-19T09:44:41.180Z,57.07
2023-01-19T09:47:07.564Z,56.90
2023-01-19T09:49:33.945Z,56.51
2023-01-19T09:52:00.349Z,55.29
2023-01-19T09:54:26.754Z,55.59
2023-01-19T09:56:53.141Z,56.05
2023-01-19T09:59:19.538Z,55.92
2023-01-19T10:01:45.953Z,55.73
2023-01-19T10:04:12.370Z,56.12
2023-01-19T10:06:38.754Z,54.76
2023-01-19T10:09:05.120Z,54.96
2023-01-19T10:11:38.099Z,54.16
2023-01-19T10:14:13.069Z,54.23
2023-01-19T10:16:39.443Z,53.71
2023-01-19T10:19:06.175Z,54.35
2023-01-19T10:21:32.585Z,53.73
2023-01-19T10:23:59.168Z,56.88
2023-01-19T10:26:25.526Z,55.57
2023-01-19T10:28:51.963Z,56.59
2023-01-19T10:31:18.426Z,56.62
2023-01-19T10:33:44.880Z,55.63
2023-01-19T10:36:11.326Z,55.47
2023-01-19T10:38:37.725Z,56.66
2023-01-19T10:41:04.123Z,58.61
2023-01-19T10:43:30.647Z,59.44
2023-01-19T10:45:57.166Z,57.82
2023-01-19T10:48:23.553Z,57.17
2023-01-19T10:50:49.956Z,57.86
2023-01-19T10:53:16.346Z,58.15
2023-01-19T10:55:42.732Z,57.58
2023-01-19T10:58:09.109Z,57.67
2023-01-19T11:00:35.492Z,58.66
2023-01-19T11:03:02.313Z,57.75
2023-01-19T11:05:28.909Z,55.96
2023-01-19T11:07:55.316Z,57.74
2023-01-19T11:10:21.673Z,57.92
2023-01-19T11:12:48.053Z,58.01
2023-01-19T11:15:14.441Z,55.43
2023-01-19T11:17:40.805Z,54.99
2023-01-19T11:20:07.288Z,53.95
2023-01-19T11:22:33.701Z,53.09
2023-01-19T11:25:00.143Z,53.43
2023-01-19T11:27:26.546Z,54.05
2023-01-19T11:29:52.922Z,53.38
2023-01-19T11:32:19.286Z,51.95
2023-01-19T11:34:45.752Z,53.47
2023-01-19T11:37:12.125Z,53.75
2023-01-19T11:39:38.495Z,53.51
2023-01-19T11:42:04.899Z,55.65
2023-01-19T11:44:31.332Z,53.78
2023-01-19T11:46:57.720Z,52.55
2023-01-19T11:49:24.091Z,53.15
2023-01-19T11:51:50.530Z,51.56
2023-01-19T11:54:16.898Z,53.24
2023-01-19T11:56:43.302Z,52.65
2023-01-19T11:59:09.720Z,50.48
2023-01-19T12:01:36.107Z,49.51
2023-01-19T12:04:02.479Z,50.00
2023-01-19T12:06:28.842Z,49.75
2023-01-19T12:08:55.223Z,49.72
2023-01-19T12:11:21.600Z,50.71
2023-01-19T12:13:47.991Z,53.15
2023-01-19T12:16:14.381Z,52.66
2023-01-19T12:18:40.786Z,53.03
2023-01-19T12:21:07.188Z,47.95
2023-01-19T12:23:33.566Z,50.76
2023-01-19T12:25:59.957Z,53.51
2023-01-19T12:28:26.450Z,54.47
2023-01-19T12:30:52.943Z,53.76
2023-01-19T12:33:19.341Z,55.63
2023-01-19T12:35:45.739Z,54.06
2023-01-19T12:38:12.114Z,52.44
2023-01-19T12:40:38.518Z,51.25
2023-01-19T12:43:04.952Z,51.76
2023-01-19T12:45:31.333Z,51.69
2023-01-19T12:47:57.725Z,52.98
2023-01-19T12:50:24.229Z,52.83
2023-01-19T12:52:50.571Z,51.48
2023-01-19T12:55:16.948Z,49.34
2023-01-19T12:57:43.336Z,49.55
2023-01-19T13:00:09.716Z,49.72
2023-01-19T13:02:36.138Z,49.78
2023-01-19T13:05:02.534Z,47.94
2023-01-19T13:07:28.904Z,49.86
2023-01-19T13:09:55.337Z,51.01
2023-01-19T13:12:21.787Z,48.73
2023-01-19T13:14:48.231Z,50.09
2023-01-19T13:17:14.631Z,48.96
2023-01-19T13:19:41.009Z,47.90
2023-01-19T13:22:07.403Z,48.46
2023-01-19T13:24:33.773Z,48.85
2023-01-19T13:27:01.271Z,46.93
2023-01-19T13:29:27.688Z,45.64
2023-01-19T13:31:54.063Z,47.12
2023-01-19T13:34:20.554Z,44.96
2023-01-19T13:36:47.005Z,44.17
2023-01-19T13:39:13.399Z,42.55
2023-01-19T13:41:39.794Z,42.33
2023-01-19T13:44:06.185Z,41.87
2023-01-19T13:46:32.558Z,41.22
2023-01-19T13:48:58.925Z,41.90
2023-01-19T13:51:25.296Z,41.29
2023-01-19T13:53:51.813Z,40.22
2023-01-19T13:56:18.269Z,42.77
2023-01-19T13:58:44.698Z,42.49
2023-01-19T14:01:11.180Z,42.64
2023-01-19T14:03:37.684Z,41.34
2023-01-19T14:06:04.107Z,39.98
2023-01-19T14:08:30.581Z,39.03
2023-01-19T14:10:56.977Z,37.56
2023-01-19T14:13:23.367Z,38.25
2023-01-19T14:15:49.872Z,36.23
2023-01-19T14:18:16.295Z,35.72
2023-01-19T14:20:42.742Z,33.94
2023-01-19T14:23:09.097Z,32.71
2023-01-19T14:25:35.510Z,31.10
2023-01-19T14:28:01.991Z,29.55
2023-01-19T14:30:28.379Z,32.12
2023-01-19T14:32:54.771Z,31.38
2023-01-19T14:35:21.145Z,30.07
2023-01-19T14:37:47.516Z,29.93
2023-01-19T14:40:13.892Z,29.91
2023-01-19T14:42:40.293Z,29.49
2023-01-19T14:45:07.180Z,27.41
2023-01-19T14:47:33.833Z,26.96
2023-01-19T14:50:00.229Z,26.16
2023-01-19T14:52:26.598Z,25.48
2023-01-19T14:54:52.992Z,26.11
2023-01-19T14:57:19.367Z,27.66
2023-01-19T14:59:45.739Z,27.61
2023-01-19T15:02:12.163Z,28.39
2023-01-19T15:04:38.639Z,29.44
2023-01-19T15:07:05.029Z,30.60
2023-01-19T15:09:31.415Z,30.79
2023-01-19T15:11:57.802Z,30.09
2023-01-19T15:14:24.190Z,31.06
2023-01-19T15:16:50.587Z,32.17
2023-01-19T15:19:17.002Z,31.61
2023-01-19T15:21:43.377Z,30.41
2023-01-19T15:24:09.767Z,30.77
2023-01-19T15:26:36.221Z,30.54
2023-01-19T15:29:02.601Z,30.48
2023-01-19T15:31:29.011Z,31.94
2023-01-19T15:33:55.424Z,32.23
2023-01-19T15:36:21.886Z,34.68
2023-01-19T15:38:48.284Z,36.36
2023-01-19T15:41:14.723Z,37.65
2023-01-19T15:43:41.107Z,40.28
2023-01-19T15:46:07.537Z,39.57
2023-01-19T15:48:33.947Z,39.12
2023-01-19T15:51:00.407Z,37.63
2023-01-19T15:53:26.796Z,38.00
2023-01-19T15:55:53.173Z,40.00
2023-01-19T15:58:19.527Z,40.53
2023-01-19T16:00:45.958Z,42.11
2023-01-19T16:03:12.366Z,44.10
2023-01-19T16:05:42.964Z,45.91
2023-01-19T16:08:09.722Z,46.97
2023-01-19T16:10:36.109Z,48.42
2023-01-19T16:13:02.506Z,49.47
2023-01-19T16:15:28.898Z,50.48
2023-01-19T16:17:55.291Z,51.11
2023-01-19T16:20:21.678Z,51.18
2023-01-19T16:22:48.062Z,52.16
2023-01-19T16:25:14.437Z,52.76
2023-01-19T16:27:40.833Z,52.22
2023-01-19T16:30:07.273Z,52.96
2023-01-19T16:32:33.724Z,52.83
2023-01-19T16:35:00.295Z,52.43
2023-01-19T16:37:28.061Z,52.45
2023-01-19T16:39:54.541Z,52.16
2023-01-19T16:42:20.913Z,53.13
2023-01-19T16:45:02.337Z,53.45
2023-01-19T16:47:28.731Z,54.15
2023-01-19T16:49:55.140Z,54.38
2023-01-19T16:52:21.526Z,54.53
2023-01-19T16:54:47.906Z,54.45
2023-01-19T16:57:14.311Z,54.46
2023-01-19T16:59:40.659Z,54.10
2023-01-19T17:02:07.150Z,54.92
2023-01-19T17:04:33.592Z,54.31
2023-01-19T17:06:59.975Z,54.72
2023-01-19T17:09:26.364Z,54.85
2023-01-19T17:11:52.729Z,55.28
2023-01-19T17:14:19.100Z,54.84
2023-01-19T17:16:45.501Z,54.97
2023-01-19T17:19:11.888Z,55.68
2023-01-19T17:21:38.272Z,55.21
2023-01-19T17:24:04.678Z,56.11
2023-01-19T17:26:31.135Z,56.47
2023-01-19T17:28:57.604Z,56.69
2023-01-19T17:31:24.100Z,56.38
2023-01-19T17:33:50.569Z,55.95
2023-01-19T17:36:16.928Z,56.77
2023-01-19T17:41:27.327Z,55.80
2023-01-19T17:43:53.672Z,56.00
2023-01-19T17:46:20.094Z,56.43
2023-01-19T17:48:46.516Z,56.53
2023-01-19T17:51:12.903Z,57.12
2023-01-19T17:53:39.311Z,57.01
2023-01-19T17:56:05.683Z,57.43
2023-01-19T17:58:32.043Z,58.06
2023-01-19T18:00:58.434Z,58.52
2023-01-19T18:03:24.886Z,58.70
2023-01-19T18:05:51.243Z,59.33
2023-01-19T18:08:17.612Z,59.71
2023-01-19T18:10:52.893Z,59.55
2023-01-19T18:13:19.241Z,59.72
2023-01-19T18:15:45.705Z,59.80
2023-01-19T18:18:12.112Z,60.06
2023-01-19T18:20:38.510Z,60.20
2023-01-19T18:23:04.903Z,60.29
2023-01-19T18:25:31.331Z,60.16
2023-01-19T18:27:57.759Z,60.17
2023-01-19T18:30:24.277Z,59.98
2023-01-19T18:32:50.694Z,59.56
2023-01-19T18:35:17.081Z,59.90
2023-01-19T18:37:43.544Z,60.14
2023-01-19T18:40:09.977Z,59.47
2023-01-19T18:42:36.481Z,59.23
2023-01-19T18:45:02.879Z,58.02
2023-01-19T18:47:29.254Z,57.02
2023-01-19T18:49:55.731Z,55.95
2023-01-19T18:52:22.115Z,56.57
2023-01-19T18:54:48.628Z,55.77
2023-01-19T18:57:15.087Z,56.28
2023-01-19T18:59:41.610Z,55.70
2023-01-19T19:02:08.020Z,55.23
2023-01-19T19:04:34.378Z,54.26
2023-01-19T19:07:00.753Z,54.72
2023-01-19T19:09:27.128Z,55.48
2023-01-19T19:11:53.552Z,54.62
2023-01-19T19:14:22.235Z,54.57
2023-01-19T19:16:48.709Z,55.21
2023-01-19T19:19:15.099Z,55.17
2023-01-19T19:21:41.551Z,55.23
2023-01-19T19:24:07.943Z,55.74
2023-01-19T19:26:34.310Z,55.31
2023-01-19T19:29:00.834Z,56.41
2023-01-19T19:31:27.223Z,57.42
2023-01-19T19:33:53.808Z,57.40
2023-01-19T19:36:20.255Z,56.81
2023-01-19T19:38:46.807Z,56.33
2023-01-19T19:41:13.255Z,56.47
2023-01-19T19:43:41.074Z,56.13
2023-01-19T19:46:07.465Z,57.45
2023-01-19T19:48:33.896Z,56.75
2023-01-19T19:51:09.434Z,55.61
2023-01-19T19:53:43.301Z,55.82
2023-01-19T19:56:09.752Z,56.33
2023-01-19T19:58:36.157Z,55.11
2023-01-19T20:01:02.685Z,54.49
2023-01-19T20:03:29.117Z,55.64
2023-01-19T20:05:55.557Z,56.61
2023-01-19T20:08:21.935Z,58.35
2023-01-19T20:10:48.300Z,59.12
2023-01-19T20:13:14.681Z,59.09
2023-01-19T20:15:41.084Z,59.35
2023-01-19T20:18:07.457Z,57.82
2023-01-19T20:20:33.865Z,57.23
2023-01-19T20:23:00.251Z,57.51
2023-01-19T20:25:26.644Z,54.56
2023-01-19T20:27:53.048Z,55.77
2023-01-19T20:30:19.539Z,54.74
2023-01-19T20:32:45.984Z,55.60
2023-01-19T20:35:12.762Z,55.73
2023-01-19T20:37:39.309Z,54.33
2023-01-19T20:40:05.909Z,54.81
2023-01-19T20:42:32.438Z,55.32
2023-01-19T20:44:58.856Z,55.01
2023-01-19T20:47:25.308Z,54.59
2023-01-19T20:49:51.719Z,54.80
2023-01-19T20:52:18.073Z,55.19
2023-01-19T20:54:44.497Z,54.90
2023-01-19T20:57:10.983Z,54.58
2023-01-19T20:59:37.360Z,54.61
2023-01-19T21:02:03.871Z,54.90
2023-01-19T21:04:30.273Z,53.81
2023-01-19T21:06:56.672Z,55.77
2023-01-19T21:09:23.036Z,54.15
2023-01-19T21:11:49.389Z,55.59
2023-01-19T21:14:15.799Z,55.34
2023-01-19T21:16:42.273Z,54.31
2023-01-19T21:19:08.794Z,53.63
2023-01-19T21:21:35.177Z,52.46
2023-01-19T21:24:01.535Z,53.48
2023-01-19T21:26:27.923Z,52.93
2023-01-19T21:28:54.273Z,52.83
2023-01-19T21:31:20.681Z,52.18
2023-01-19T21:33:47.063Z,51.84
2023-01-19T21:36:13.417Z,51.96
2023-01-19T21:38:39.785Z,51.77
2023-01-19T21:41:06.152Z,51.69
2023-01-19T21:43:32.523Z,52.37
2023-01-19T21:45:59.020Z,52.55
2023-01-19T21:48:25.480Z,52.59
2023-01-19T21:50:51.924Z,52.01
2023-01-19T21:53:18.341Z,53.09
2023-01-19T21:55:44.699Z,52.08
2023-01-19T21:58:11.050Z,52.74
2023-01-19T22:00:37.575Z,53.24
2023-01-19T22:03:04.893Z,53.63
2023-01-19T22:05:31.422Z,54.33
2023-01-19T22:07:57.776Z,53.38
2023-01-19T22:10:24.182Z,53.02
2023-01-19T22:12:50.554Z,53.52
2023-01-19T22:15:16.915Z,55.46
2023-01-19T22:17:43.314Z,56.15
2023-01-19T22:20:09.668Z,55.51
2023-01-19T22:22:36.030Z,56.47
2023-01-19T22:25:02.406Z,57.86
2023-01-19T22:27:28.869Z,58.13
2023-01-19T22:29:55.414Z,57.98
2023-01-19T22:32:21.800Z,58.36
2023-01-19T22:34:48.200Z,58.42
2023-01-19T22:37:14.595Z,58.87
2023-01-19T22:39:40.989Z,58.29
2023-01-19T22:42:07.369Z,58.76
2023-01-19T22:44:33.813Z,58.91
2023-01-19T22:47:00.184Z,59.20
2023-01-19T22:49:26.536Z,58.72
2023-01-19T22:51:52.924Z,59.30
2023-01-19T22:54:19.297Z,59.69
2023-01-19T22:56:45.679Z,60.02
2023-01-19T22:59:12.042Z,60.06
2023-01-19T23:01:38.539Z,60.60
2023-01-19T23:04:04.974Z,60.57
2023-01-19T23:06:31.355Z,59.99
2023-01-19T23:08:57.743Z,60.23
2023-01-19T23:11:24.109Z,60.48
2023-01-19T23:13:50.492Z,60.07
2023-01-19T23:16:16.960Z,59.72
2023-01-19T23:18:43.330Z,59.83
2023-01-19T23:21:09.711Z,59.95
2023-01-19T23:23:36.092Z,59.94
2023-01-19T23:26:02.454Z,59.75
2023-01-19T23:28:28.834Z,59.07
2023-01-19T23:30:55.270Z,59.09
2023-01-19T23:33:21.767Z,59.72
2023-01-19T23:35:48.133Z,60.05
2023-01-19T23:38:14.510Z,60.45
2023-01-19T23:40:40.961Z,59.54
2023-01-19T23:43:07.330Z,60.26
2023-01-19T23:45:33.705Z,60.80
2023-01-19T23:48:00.120Z,59.87
2023-01-19T23:50:26.504Z,59.96
2023-01-19T23:52:52.877Z,59.01
2023-01-19T23:55:19.231Z,59.28
2023-01-19T23:57:45.631Z,56.44
